createdAt,value
2023-11-20T00:01:27.551Z,83.62
2023-11-20T00:04:00.446Z,83.95
2023-11-20T00:06:33.682Z,83.56
2023-11-20T00:09:10.478Z,84.37
2023-11-20T00:11:47.692Z,84.58
2023-11-20T00:14:20.098Z,85.02
2023-11-20T00:16:54.941Z,85.59
2023-11-20T00:19:29.905Z,86.17
2023-11-20T00:22:03.569Z,86.40
2023-11-20T00:24:35.790Z,86.62
2023-11-20T00:27:08.671Z,87.29
2023-11-20T00:29:41.215Z,87.15
2023-11-20T00:32:19.391Z,88.07
2023-11-20T00:34:55.150Z,88.16
2023-11-20T00:37:28.350Z,88.45
2023-11-20T00:40:08.986Z,88.73
2023-11-20T00:46:15.397Z,88.96
2023-11-20T00:48:49.345Z,89.71
2023-11-20T00:51:27.021Z,90.69
2023-11-20T00:53:56.741Z,91.82
2023-11-20T00:56:30.075Z,90.99
2023-11-20T00:59:04.860Z,91.50
2023-11-20T01:01:40.475Z,91.28
2023-11-20T01:04:13.066Z,91.15
2023-11-20T01:06:49.105Z,92.16
2023-11-20T01:09:24.056Z,91.43
2023-11-20T01:12:00.062Z,92.34
2023-11-20T01:14:34.776Z,92.58
2023-11-20T01:17:08.006Z,93.63
2023-11-20T01:19:40.159Z,93.89
2023-11-20T01:22:17.800Z,93.59
2023-11-20T01:24:49.756Z,93.34
2023-11-20T01:27:26.807Z,94.63
2023-11-20T01:30:02.796Z,96.44
2023-11-20T01:32:36.050Z,96.73
2023-11-20T01:35:10.511Z,96.91
2023-11-20T01:37:45.580Z,97.31
2023-11-20T01:40:17.924Z,96.55
2023-11-20T01:42:50.551Z,96.43
2023-11-20T01:45:25.560Z,96.67
2023-11-20T01:47:58.898Z,97.29
2023-11-20T01:50:36.629Z,97.06
2023-11-20T01:53:12.976Z,97.62
2023-11-20T01:55:44.852Z,97.56
2023-11-20T01:58:22.990Z,97.28
2023-11-20T02:00:52.566Z,97.79
2023-11-20T02:03:26.191Z,97.91
2023-11-20T02:05:57.943Z,97.76
2023-11-20T02:08:31.259Z,98.71
2023-11-20T02:11:03.969Z,99.05
2023-11-20T02:13:39.043Z,98.48
2023-11-20T02:16:15.254Z,98.46
2023-11-20T02:18:48.489Z,99.15
2023-11-20T02:21:23.218Z,99.57
2023-11-20T02:24:00.519Z,100.00
2023-11-20T02:27:15.021Z,99.82
2023-11-20T02:29:55.237Z,100.00
2023-11-20T02:32:26.857Z,100.00
2023-11-20T02:34:59.072Z,100.00
2023-11-20T02:37:32.439Z,100.00
2023-11-20T02:40:10.047Z,100.00
2023-11-20T02:42:45.774Z,100.00
2023-11-20T02:45:19.686Z,100.00
2023-11-20T02:47:57.149Z,100.00
2023-11-20T02:50:31.970Z,100.00
2023-11-20T02:53:10.291Z,100.00
2023-11-20T02:55:41.927Z,100.00
2023-11-20T02:58:14.141Z,100.00
2023-11-20T03:00:47.824Z,100.00
2023-11-20T03:03:25.727Z,100.00
2023-11-20T03:06:01.506Z,100.00
2023-11-20T03:08:37.481Z,100.00
2023-11-20T03:11:13.333Z,100.00
2023-11-20T03:13:47.616Z,100.00
2023-11-20T03:16:20.481Z,100.00
2023-11-20T03:18:52.490Z,100.00
2023-11-20T03:21:27.605Z,100.00
2023-11-20T03:23:58.120Z,100.00
2023-11-20T03:26:33.867Z,100.00
2023-11-20T03:29:07.019Z,100.00
2023-11-20T03:31:40.915Z,100.00
2023-11-20T03:34:16.038Z,100.00
2023-11-20T03:36:48.403Z,100.00
2023-11-20T03:39:25.268Z,100.00
2023-11-20T03:42:03.739Z,100.00
2023-11-20T03:47:14.478Z,100.00
2023-11-20T03:49:49.238Z,100.00
2023-11-20T03:52:21.155Z,100.00
2023-11-20T03:54:55.335Z,100.00
2023-11-20T03:57:31.056Z,100.00
2023-11-20T04:00:06.638Z,100.00
2023-11-20T04:02:39.834Z,100.00
2023-11-20T04:05:12.654Z,100.00
2023-11-20T04:07:49.599Z,100.00
2023-11-20T04:10:23.934Z,100.00
2023-11-20T04:12:55.814Z,100.00
2023-11-20T04:15:28.056Z,100.00
2023-11-20T04:18:03.144Z,100.00
2023-11-20T04:20:39.924Z,100.00
2023-11-20T04:23:19.248Z,100.00
2023-11-20T04:25:51.637Z,100.00
2023-11-20T04:28:28.687Z,100.00
2023-11-20T04:31:03.291Z,100.00
2023-11-20T04:33:37.504Z,100.00
2023-11-20T04:36:10.961Z,100.00
2023-11-20T04:38:43.464Z,100.00
2023-11-20T04:41:15.554Z,100.00
2023-11-20T04:43:48.351Z,100.00
2023-11-20T04:46:20.237Z,100.00
2023-11-20T04:48:53.801Z,100.00
2023-11-20T04:51:28.487Z,100.00
2023-11-20T04:54:03.378Z,100.00
2023-11-20T04:56:39.231Z,100.00
2023-11-20T04:59:11.322Z,100.00
2023-11-20T05:01:46.298Z,100.00
2023-11-20T05:04:19.927Z,100.00
2023-11-20T05:06:52.122Z,100.00
2023-11-20T05:09:26.301Z,100.00
2023-11-20T05:12:05.282Z,100.00
2023-11-20T05:14:42.517Z,100.00
2023-11-20T05:17:19.841Z,100.00
2023-11-20T05:19:53.297Z,100.00
2023-11-20T05:22:31.189Z,100.00
2023-11-20T05:25:08.818Z,100.00
2023-11-20T05:27:45.666Z,100.00
2023-11-20T05:30:18.153Z,100.00
2023-11-20T05:32:55.096Z,100.00
2023-11-20T05:35:28.513Z,100.00
2023-11-20T05:38:04.055Z,100.00
2023-11-20T05:40:36.317Z,100.00
2023-11-20T05:43:11.273Z,100.00
2023-11-20T05:45:43.583Z,100.00
2023-11-20T05:48:18.661Z,100.00
2023-11-20T05:50:52.248Z,100.00
2023-11-20T05:53:27.165Z,100.00
2023-11-20T05:56:05.255Z,100.00
2023-11-20T05:58:39.144Z,100.00
2023-11-20T06:01:11.793Z,100.00
2023-11-20T06:03:49.634Z,100.00
2023-11-20T06:06:25.748Z,100.00
2023-11-20T06:09:00.024Z,100.00
2023-11-20T06:11:34.819Z,100.00
2023-11-20T06:14:09.159Z,100.00
2023-11-20T06:16:44.756Z,100.00
2023-11-20T06:19:23.484Z,100.00
2023-11-20T06:21:58.511Z,100.00
2023-11-20T06:24:35.301Z,100.00
2023-11-20T06:27:10.515Z,100.00
2023-11-20T06:29:47.751Z,100.00
2023-11-20T06:32:19.769Z,100.00
2023-11-20T06:34:54.043Z,100.00
2023-11-20T06:37:27.447Z,100.00
2023-11-20T06:40:09.782Z,100.00
2023-11-20T06:42:45.605Z,100.00
2023-11-20T06:47:14.535Z,100.00
2023-11-20T06:49:46.748Z,100.00
2023-11-20T06:52:20.959Z,99.26
2023-11-20T06:54:55.865Z,98.32
2023-11-20T06:57:31.005Z,97.28
2023-11-20T07:00:07.488Z,94.78
2023-11-20T07:02:40.842Z,93.60
2023-11-20T07:05:18.925Z,92.98
2023-11-20T07:07:56.851Z,91.24
2023-11-20T07:10:29.106Z,90.52
2023-11-20T07:13:06.317Z,90.29
2023-11-20T07:15:42.439Z,89.54
2023-11-20T07:18:16.170Z,88.15
2023-11-20T07:20:48.244Z,86.26
2023-11-20T07:23:20.124Z,84.80
2023-11-20T07:25:57.563Z,83.62
2023-11-20T07:28:29.569Z,83.02
2023-11-20T07:31:01.340Z,81.33
2023-11-20T07:33:34.812Z,81.37
2023-11-20T07:36:11.322Z,80.50
2023-11-20T07:38:45.296Z,78.82
2023-11-20T07:41:20.134Z,79.25
2023-11-20T07:43:54.915Z,78.11
2023-11-20T07:46:39.057Z,77.72
2023-11-20T07:49:12.525Z,77.64
2023-11-20T07:51:44.889Z,76.30
2023-11-20T07:54:17.254Z,75.42
2023-11-20T07:56:50.037Z,75.34
2023-11-20T07:59:25.130Z,74.31
2023-11-20T08:02:02.499Z,73.59
2023-11-20T08:04:36.391Z,72.38
2023-11-20T08:07:06.673Z,71.47
2023-11-20T08:09:37.349Z,71.22
2023-11-20T08:12:08.264Z,70.95
2023-11-20T08:14:38.729Z,69.88
2023-11-20T08:17:13.643Z,69.07
2023-11-20T08:19:47.768Z,67.44
2023-11-20T08:22:19.085Z,68.00
2023-11-20T08:24:49.031Z,69.04
2023-11-20T08:27:19.073Z,69.69
2023-11-20T08:29:48.967Z,67.96
2023-11-20T08:32:19.047Z,68.72
2023-11-20T08:34:50.484Z,67.62
2023-11-20T08:37:20.581Z,68.83
2023-11-20T08:39:51.428Z,66.86
2023-11-20T08:42:21.765Z,69.13
2023-11-20T08:44:54.991Z,68.44
2023-11-20T08:47:25.154Z,67.06
2023-11-20T08:49:56.815Z,66.51
2023-11-20T08:52:26.795Z,67.32
2023-11-20T08:54:57.259Z,65.88
2023-11-20T08:57:27.166Z,65.88
2023-11-20T08:59:57.085Z,63.74
2023-11-20T09:02:27.238Z,64.33
2023-11-20T09:04:58.575Z,65.00
2023-11-20T09:07:28.503Z,65.14
2023-11-20T09:09:58.464Z,61.79
2023-11-20T09:12:28.350Z,63.22
2023-11-20T09:14:58.215Z,63.63
2023-11-20T09:17:28.064Z,64.36
2023-11-20T09:19:59.532Z,63.64
2023-11-20T09:22:29.404Z,63.65
2023-11-20T09:25:05.357Z,64.39
2023-11-20T09:27:36.375Z,63.43
2023-11-20T09:30:08.236Z,62.49
2023-11-20T09:32:38.175Z,60.90
2023-11-20T09:35:12.094Z,61.45
2023-11-20T09:37:42.101Z,59.54
2023-11-20T09:40:15.023Z,60.28
2023-11-20T09:42:45.620Z,59.99
2023-11-20T09:47:12.950Z,59.24
2023-11-20T09:49:46.744Z,59.35
2023-11-20T09:52:17.180Z,59.52
2023-11-20T09:54:47.734Z,59.24
2023-11-20T09:57:23.005Z,60.14
2023-11-20T09:59:52.968Z,59.85
2023-11-20T10:02:24.673Z,60.73
2023-11-20T10:04:57.344Z,60.36
2023-11-20T10:07:31.782Z,60.87
2023-11-20T10:10:03.396Z,59.93
2023-11-20T10:12:36.649Z,61.08
2023-11-20T10:15:08.669Z,60.43
2023-11-20T10:17:41.086Z,60.78
2023-11-20T10:20:12.119Z,59.53
2023-11-20T10:22:42.001Z,60.46
2023-11-20T10:25:12.931Z,59.90
2023-11-20T10:27:44.509Z,60.71
2023-11-20T10:30:15.758Z,60.47
2023-11-20T10:32:47.927Z,61.12
2023-11-20T10:35:19.815Z,60.44
2023-11-20T10:37:59.560Z,60.36
2023-11-20T10:40:29.780Z,60.97
2023-11-20T10:43:00.411Z,61.97
2023-11-20T10:45:30.444Z,60.33
2023-11-20T10:48:01.936Z,59.99
2023-11-20T10:50:36.587Z,58.23
2023-11-20T10:53:08.785Z,59.50
2023-11-20T10:55:45.250Z,60.01
2023-11-20T10:58:15.590Z,60.60
2023-11-20T11:00:46.380Z,61.00
2023-11-20T11:03:19.337Z,61.18
2023-11-20T11:05:50.806Z,62.60
2023-11-20T11:08:23.922Z,61.01
2023-11-20T11:10:56.539Z,61.58
2023-11-20T11:13:30.680Z,62.24
2023-11-20T11:16:01.758Z,62.08
2023-11-20T11:18:36.500Z,62.61
2023-11-20T11:21:12.231Z,61.95
2023-11-20T11:23:51.128Z,63.29
2023-11-20T11:26:28.342Z,63.08
2023-11-20T11:29:03.139Z,63.11
2023-11-20T11:31:49.672Z,63.75
2023-11-20T11:34:43.862Z,63.00
2023-11-20T11:37:27.955Z,63.17
2023-11-20T11:40:11.627Z,63.44
2023-11-20T11:42:47.919Z,63.44
2023-11-20T11:45:20.606Z,63.71
2023-11-20T11:47:52.350Z,65.07
2023-11-20T11:50:23.880Z,65.21
2023-11-20T11:52:53.763Z,65.90
2023-11-20T11:55:30.006Z,66.11
2023-11-20T11:58:04.608Z,66.71
2023-11-20T12:00:34.519Z,65.94
2023-11-20T12:03:11.034Z,65.70
2023-11-20T12:06:19.915Z,65.92
2023-11-20T12:08:55.525Z,67.13
2023-11-20T12:11:55.422Z,66.68
2023-11-20T12:14:25.352Z,66.63
2023-11-20T12:16:55.737Z,67.03
2023-11-20T12:19:26.890Z,66.47
2023-11-20T12:21:59.160Z,67.73
2023-11-20T12:24:30.621Z,66.82
2023-11-20T12:27:01.121Z,67.54
2023-11-20T12:29:33.221Z,67.71
2023-11-20T12:32:05.463Z,67.59
2023-11-20T12:34:36.222Z,67.63
2023-11-20T12:37:07.890Z,67.31
2023-11-20T12:39:38.770Z,67.78
2023-11-20T12:42:09.781Z,68.46
2023-11-20T12:47:12.774Z,68.35
2023-11-20T12:49:43.279Z,68.38
2023-11-20T12:52:14.221Z,68.28
2023-11-20T12:54:45.380Z,68.38
2023-11-20T12:57:15.284Z,68.87
2023-11-20T12:59:48.271Z,67.64
2023-11-20T13:02:25.885Z,67.86
2023-11-20T13:04:56.006Z,67.85
2023-11-20T13:07:26.353Z,66.88
2023-11-20T13:09:56.392Z,65.88
2023-11-20T13:12:26.481Z,66.37
2023-11-20T13:15:05.741Z,65.92
2023-11-20T13:17:39.120Z,65.70
2023-11-20T13:20:44.016Z,65.89
2023-11-20T13:23:24.316Z,65.66
2023-11-20T13:25:55.647Z,66.07
2023-11-20T13:28:29.150Z,65.84
2023-11-20T13:31:01.915Z,66.33
2023-11-20T13:33:34.767Z,66.02
2023-11-20T13:36:09.824Z,66.11
2023-11-20T13:38:40.477Z,64.97
2023-11-20T13:41:10.979Z,65.56
2023-11-20T13:43:41.921Z,65.89
2023-11-20T13:46:12.185Z,65.80
2023-11-20T13:48:44.005Z,65.47
2023-11-20T13:51:14.508Z,65.34
2023-11-20T13:53:45.340Z,65.22
2023-11-20T13:56:15.259Z,65.77
2023-11-20T13:58:45.980Z,65.11
2023-11-20T14:01:16.890Z,65.24
2023-11-20T14:03:48.623Z,65.66
2023-11-20T14:06:19.440Z,66.07
2023-11-20T14:08:49.979Z,64.95
2023-11-20T14:11:19.979Z,64.24
2023-11-20T14:13:51.483Z,64.47
2023-11-20T14:16:21.617Z,65.79
2023-11-20T14:18:53.013Z,65.92
2023-11-20T14:21:22.882Z,66.03
2023-11-20T14:23:52.780Z,66.36
2023-11-20T14:26:29.845Z,65.46
2023-11-20T14:29:04.692Z,66.19
2023-11-20T14:31:34.818Z,64.92
2023-11-20T14:34:06.500Z,65.81
2023-11-20T14:36:36.399Z,66.52
2023-11-20T14:39:06.747Z,65.98
2023-11-20T14:41:36.492Z,67.12
2023-11-20T14:44:06.778Z,66.89
2023-11-20T14:46:37.030Z,67.27
2023-11-20T14:49:09.930Z,67.45
2023-11-20T14:51:39.823Z,66.88
2023-11-20T14:54:10.063Z,66.92
2023-11-20T14:56:41.242Z,67.47
2023-11-20T14:59:11.401Z,67.45
2023-11-20T15:01:41.582Z,67.16
2023-11-20T15:04:13.267Z,66.87
2023-11-20T15:06:45.023Z,67.83
2023-11-20T15:09:14.863Z,67.97
2023-11-20T15:11:44.621Z,68.08
2023-11-20T15:14:15.460Z,68.65
2023-11-20T15:16:45.376Z,68.54
2023-11-20T15:19:16.738Z,68.31
2023-11-20T15:21:46.627Z,68.02
2023-11-20T15:24:16.448Z,68.09
2023-11-20T15:26:49.891Z,67.98
2023-11-20T15:29:19.751Z,67.72
2023-11-20T15:31:49.666Z,67.99
2023-11-20T15:34:21.211Z,67.93
2023-11-20T15:36:51.167Z,67.78
2023-11-20T15:39:21.458Z,68.41
2023-11-20T15:41:51.566Z,68.66
2023-11-20T15:47:12.553Z,69.85
2023-11-20T15:49:42.542Z,69.91
2023-11-20T15:52:12.954Z,69.72
2023-11-20T15:54:43.031Z,69.66
2023-11-20T15:57:13.245Z,69.32
2023-11-20T15:59:44.000Z,69.42
2023-11-20T16:02:15.358Z,69.36
2023-11-20T16:04:45.875Z,70.13
2023-11-20T16:07:16.331Z,71.30
2023-11-20T16:09:46.238Z,71.69
2023-11-20T16:12:16.633Z,71.88
2023-11-20T16:14:46.750Z,72.47
2023-11-20T16:17:18.340Z,73.24
2023-11-20T16:19:48.419Z,73.53
2023-11-20T16:22:18.416Z,74.22
2023-11-20T16:24:52.525Z,74.85
2023-11-20T16:27:22.564Z,75.90
2023-11-20T16:29:52.416Z,75.55
2023-11-20T16:32:23.886Z,75.83
2023-11-20T16:34:53.605Z,76.13
2023-11-20T16:37:23.370Z,76.82
2023-11-20T16:39:53.325Z,77.19
2023-11-20T16:42:23.239Z,77.41
2023-11-20T16:44:53.201Z,77.48
2023-11-20T16:47:24.854Z,77.29
2023-11-20T16:49:55.702Z,77.86
2023-11-20T16:52:25.900Z,78.65
2023-11-20T16:54:55.746Z,79.34
2023-11-20T16:57:25.633Z,79.96
2023-11-20T16:59:56.016Z,81.05
2023-11-20T17:02:27.465Z,80.72
2023-11-20T17:04:58.340Z,81.19
2023-11-20T17:07:28.246Z,81.55
2023-11-20T17:09:58.235Z,82.09
2023-11-20T17:12:28.101Z,82.29
2023-11-20T17:14:58.546Z,81.78
2023-11-20T17:17:29.775Z,81.69
2023-11-20T17:19:59.648Z,82.14
2023-11-20T17:22:30.717Z,82.54
2023-11-20T17:25:00.983Z,82.90
2023-11-20T17:27:30.830Z,83.36
2023-11-20T17:30:02.353Z,83.82
2023-11-20T17:32:34.347Z,84.97
2023-11-20T17:35:05.065Z,84.29
2023-11-20T17:37:34.963Z,84.55
2023-11-20T17:40:05.349Z,85.21
2023-11-20T17:42:35.765Z,84.75
2023-11-20T17:45:05.957Z,85.15
2023-11-20T17:47:37.550Z,84.44
2023-11-20T17:50:09.169Z,84.52
2023-11-20T17:52:40.812Z,85.40
2023-11-20T17:55:13.537Z,84.98
2023-11-20T17:57:43.441Z,85.44
2023-11-20T18:00:15.263Z,85.78
2023-11-20T18:02:47.975Z,86.39
2023-11-20T18:05:18.588Z,86.93
2023-11-20T18:07:48.482Z,86.64
2023-11-20T18:10:18.565Z,86.85
2023-11-20T18:12:49.179Z,86.90
2023-11-20T18:15:19.955Z,87.36
2023-11-20T18:17:50.347Z,87.34
2023-11-20T18:20:20.605Z,87.46
2023-11-20T18:22:50.496Z,87.74
2023-11-20T18:25:20.535Z,88.09
2023-11-20T18:27:51.638Z,87.86
2023-11-20T18:30:22.824Z,88.31
2023-11-20T18:32:54.059Z,87.86
2023-11-20T18:35:26.153Z,88.21
2023-11-20T18:37:56.021Z,89.42
2023-11-20T18:40:25.983Z,88.87
2023-11-20T18:42:55.761Z,88.90
2023-11-20T18:47:12.855Z,89.13
2023-11-20T18:49:44.102Z,89.90
2023-11-20T18:52:14.815Z,90.09
2023-11-20T18:54:44.604Z,89.99
2023-11-20T18:57:14.482Z,90.41
2023-11-20T18:59:44.422Z,94.89
2023-11-20T19:02:16.091Z,94.21
2023-11-20T19:04:46.322Z,93.61
2023-11-20T19:07:16.296Z,94.97
2023-11-20T19:09:46.102Z,94.00
2023-11-20T19:12:16.011Z,94.16
2023-11-20T19:14:45.800Z,93.64
2023-11-20T19:17:17.214Z,94.16
2023-11-20T19:19:47.063Z,93.74
2023-11-20T19:22:17.041Z,93.63
2023-11-20T19:24:47.825Z,95.19
2023-11-20T19:27:17.793Z,94.18
2023-11-20T19:29:47.600Z,94.30
2023-11-20T19:32:18.988Z,94.28
2023-11-20T19:34:48.915Z,93.47
2023-11-20T19:37:18.756Z,93.42
2023-11-20T19:39:49.064Z,94.54
2023-11-20T19:42:19.062Z,94.18
2023-11-20T19:44:49.764Z,94.43
2023-11-20T19:47:21.373Z,94.22
2023-11-20T19:49:51.380Z,94.41
2023-11-20T19:52:25.193Z,95.37
2023-11-20T19:54:55.216Z,94.77
2023-11-20T19:57:25.189Z,95.02
2023-11-20T19:59:55.051Z,98.97
2023-11-20T20:02:26.418Z,96.66
2023-11-20T20:04:56.287Z,97.87
2023-11-20T20:07:27.212Z,97.47
2023-11-20T20:09:57.133Z,97.25
2023-11-20T20:12:27.041Z,96.82
2023-11-20T20:14:56.886Z,96.09
2023-11-20T20:17:28.277Z,96.11
2023-11-20T20:19:58.087Z,95.14
2023-11-20T20:22:28.418Z,96.15
2023-11-20T20:24:58.335Z,95.45
2023-11-20T20:27:28.281Z,95.12
2023-11-20T20:29:58.710Z,95.44
2023-11-20T20:32:30.826Z,97.38
2023-11-20T20:35:00.839Z,96.70
2023-11-20T20:37:33.318Z,96.88
2023-11-20T20:40:03.483Z,96.64
2023-11-20T20:42:33.461Z,97.16
2023-11-20T20:45:03.370Z,96.72
2023-11-20T20:47:34.959Z,96.12
2023-11-20T20:50:04.921Z,95.40
2023-11-20T20:52:34.772Z,95.48
2023-11-20T20:55:03.596Z,95.57
2023-11-20T20:57:34.828Z,96.43
2023-11-20T21:00:10.252Z,96.81
2023-11-20T21:02:41.605Z,97.11
2023-11-20T21:05:12.974Z,97.29
2023-11-20T21:07:43.425Z,96.66
2023-11-20T21:10:13.831Z,96.65
2023-11-20T21:12:43.876Z,97.52
2023-11-20T21:15:15.989Z,96.30
2023-11-20T21:17:50.223Z,96.27
2023-11-20T21:20:21.579Z,96.40
2023-11-20T21:22:52.134Z,96.81
2023-11-20T21:25:24.498Z,96.72
2023-11-20T21:27:54.578Z,96.76
2023-11-20T21:30:24.481Z,97.11
2023-11-20T21:32:56.108Z,98.26
2023-11-20T21:35:37.075Z,97.63
2023-11-20T21:38:13.501Z,97.31
2023-11-20T21:40:43.335Z,97.49
2023-11-20T21:43:15.632Z,97.75
2023-11-20T21:47:12.315Z,97.54
2023-11-20T21:49:42.804Z,97.87
2023-11-20T21:52:13.193Z,98.12
2023-11-20T21:54:42.961Z,98.13
2023-11-20T21:57:12.713Z,99.20
2023-11-20T21:59:44.100Z,99.02
2023-11-20T22:02:15.538Z,98.84
2023-11-20T22:04:45.523Z,99.44
2023-11-20T22:07:20.159Z,99.03
2023-11-20T22:09:50.007Z,99.49
2023-11-20T22:12:19.773Z,98.34
2023-11-20T22:14:49.762Z,98.11
2023-11-20T22:17:21.065Z,98.01
2023-11-20T22:19:50.944Z,98.40
2023-11-20T22:22:21.014Z,98.93
2023-11-20T22:24:51.406Z,98.09
2023-11-20T22:27:21.483Z,98.17
2023-11-20T22:29:51.301Z,98.48
2023-11-20T22:32:23.532Z,98.30
2023-11-20T22:35:09.652Z,98.19
2023-11-20T22:37:43.953Z,98.91
2023-11-20T22:40:17.539Z,98.85
2023-11-20T22:42:48.151Z,99.48
2023-11-20T22:45:18.033Z,99.17
2023-11-20T22:47:49.514Z,99.05
2023-11-20T22:50:19.475Z,100.00
2023-11-20T22:52:49.662Z,100.00
2023-11-20T22:55:19.929Z,100.00
2023-11-20T22:57:50.250Z,100.00
2023-11-20T23:00:26.679Z,100.00
2023-11-20T23:02:58.238Z,100.00
2023-11-20T23:05:28.109Z,100.00
2023-11-20T23:07:57.918Z,100.00
2023-11-20T23:10:27.845Z,100.00
2023-11-20T23:12:57.843Z,100.00
2023-11-20T23:15:27.705Z,100.00
2023-11-20T23:17:59.988Z,100.00
2023-11-20T23:20:30.142Z,100.00
2023-11-20T23:23:00.064Z,100.00
2023-11-20T23:25:29.977Z,100.00
2023-11-20T23:28:01.741Z,100.00
2023-11-20T23:30:32.704Z,100.00
2023-11-20T23:33:05.403Z,100.00
2023-11-20T23:35:35.601Z,100.00
2023-11-20T23:38:05.364Z,99.97
2023-11-20T23:40:35.286Z,100.00
2023-11-20T23:43:06.163Z,99.80
2023-11-20T23:45:36.042Z,100.00
2023-11-20T23:48:09.168Z,100.00
2023-11-20T23:50:39.686Z,100.00
2023-11-20T23:53:10.108Z,100.00
2023-11-20T23:55:39.889Z,100.00
2023-11-20T23:58:09.930Z,100.00
